<?xml version="1.0" encoding="UTF-8"?><gpx creator="Wikiloc - https://www.wikiloc.com" version="1.1" xmlns="http://www.topografix.com/GPX/1/1" xmlns:xsi="http://www.w3.org/2001/XMLSchema-instance" xsi:schemaLocation="http://www.topografix.com/GPX/1/1 http://www.topografix.com/GPX/1/1/gpx.xsd"><metadata><name>Wikiloc - El Guincho, Garachico - Tenerife</name><author><name>meinteneriffa</name><link href="https://www.wikiloc.com/wikiloc/user.do?id=2927482"><text>meinteneriffa on Wikiloc</text></link></author><link href="https://www.wikiloc.com/walking-trails/el-guincho-garachico-tenerife-84424563"><text>El Guincho, Garachico - Tenerife on Wikiloc</text></link><time>2021-09-21T16:20:41.080Z</time></metadata><wpt lat="28.373759" lon="-16.741991"><ele>73.5</ele><time>2021-09-21T16:20:41.080Z</time><name>Bar La Oficina V</name><cmt></cmt><desc></desc></wpt><wpt lat="28.375902" lon="-16.742812"><ele>6.1</ele><time>2021-09-21T16:20:41.080Z</time><name>Playa de la Consolación</name><cmt></cmt><desc></desc></wpt><wpt lat="28.376111" lon="-16.738691"><ele>38.3</ele><time>2021-09-21T16:20:41.080Z</time><name>Hotel Rural El Patio</name><cmt></cmt><desc></desc></wpt><wpt lat="28.376627" lon="-16.739115"><ele>40.6</ele><time>2021-09-21T16:20:41.080Z</time><name>Casa Rural Malpaís Trece</name><cmt></cmt><desc></desc></wpt><wpt lat="28.380135" lon="-16.735270"><ele>6.7</ele><time>2021-09-21T16:20:41.080Z</time><name>Padelplatz</name><cmt></cmt><desc></desc></wpt><wpt lat="28.379600" lon="-16.732298"><ele>12.7</ele><time>2021-09-21T16:20:41.080Z</time><name>Beginn Felspfad</name><cmt></cmt><desc></desc></wpt><wpt lat="28.378263" lon="-16.731036"><ele>2.6</ele><time>2021-09-21T16:20:41.080Z</time><name>Felsbrücke</name><cmt></cmt><desc></desc></wpt><wpt lat="28.375075" lon="-16.734637"><ele>22.2</ele><time>2021-09-21T16:20:41.080Z</time><name>Palmen</name><cmt></cmt><desc></desc></wpt><wpt lat="28.378199" lon="-16.740535"><ele>4.6</ele><time>2021-09-21T16:20:41.080Z</time><name>Playa El Guincho</name><cmt></cmt><desc></desc></wpt><wpt lat="28.374985" lon="-16.740991"><ele>46.9</ele><time>2021-09-21T16:20:41.080Z</time><name>Ermita La Consolación</name><cmt></cmt><desc></desc></wpt><wpt lat="28.373242" lon="-16.746114"><ele>44.8</ele><time>2021-09-21T16:20:41.080Z</time><name>Mirador El Guincho</name><cmt></cmt><desc></desc></wpt><trk><name>El Guincho, Garachico - Tenerife</name><cmt></cmt><desc></desc><trkseg><trkpt lat="28.373701" lon="-16.741998"><ele>75.966</ele><time>2024-07-15T11:08:03.748134011Z</time></trkpt><trkpt lat="28.373677" lon="-16.742168"><ele>76.129</ele><time>2024-07-15T11:08:23.748138058Z</time></trkpt><trkpt lat="28.373623" lon="-16.742373"><ele>76.621</ele><time>2024-07-15T11:08:43.748141204Z</time></trkpt><trkpt lat="28.373650" lon="-16.742388"><ele>75.808</ele><time>2024-07-15T11:09:03.748144190Z</time></trkpt><trkpt lat="28.373724" lon="-16.742457"><ele>73.724</ele><time>2024-07-15T11:09:23.748147025Z</time></trkpt><trkpt lat="28.373802" lon="-16.742535"><ele>71.490</ele><time>2024-07-15T11:09:43.748149309Z</time></trkpt><trkpt lat="28.373884" lon="-16.742575"><ele>69.090</ele><time>2024-07-15T11:10:03.748151674Z</time></trkpt><trkpt lat="28.374032" lon="-16.742631"><ele>63.498</ele><time>2024-07-15T11:10:23.748154028Z</time></trkpt><trkpt lat="28.374011" lon="-16.742803"><ele>62.610</ele><time>2024-07-15T11:10:43.748156272Z</time></trkpt><trkpt lat="28.373974" lon="-16.743157"><ele>59.251</ele><time>2024-07-15T11:11:03.751174915Z</time></trkpt><trkpt lat="28.374141" lon="-16.743167"><ele>55.772</ele><time>2024-07-15T11:11:23.751181276Z</time></trkpt><trkpt lat="28.374194" lon="-16.743199"><ele>54.449</ele><time>2024-07-15T11:11:43.751184012Z</time></trkpt><trkpt lat="28.374243" lon="-16.743099"><ele>54.158</ele><time>2024-07-15T11:12:03.751186586Z</time></trkpt><trkpt lat="28.374286" lon="-16.743077"><ele>53.352</ele><time>2024-07-15T11:12:23.751189161Z</time></trkpt><trkpt lat="28.375231" lon="-16.743535"><ele>32.617</ele><time>2024-07-15T11:12:43.751191516Z</time></trkpt><trkpt lat="28.375268" lon="-16.743509"><ele>31.808</ele><time>2024-07-15T11:13:03.751193880Z</time></trkpt><trkpt lat="28.375307" lon="-16.743478"><ele>30.343</ele><time>2024-07-15T11:13:23.751196275Z</time></trkpt><trkpt lat="28.375358" lon="-16.743430"><ele>28.069</ele><time>2024-07-15T11:13:43.751198729Z</time></trkpt><trkpt lat="28.375376" lon="-16.743401"><ele>27.149</ele><time>2024-07-15T11:14:03.751201023Z</time></trkpt><trkpt lat="28.375368" lon="-16.743343"><ele>27.187</ele><time>2024-07-15T11:14:23.751203258Z</time></trkpt><trkpt lat="28.375357" lon="-16.743281"><ele>27.069</ele><time>2024-07-15T11:14:43.751205482Z</time></trkpt><trkpt lat="28.375358" lon="-16.743221"><ele>26.420</ele><time>2024-07-15T11:15:03.751207716Z</time></trkpt><trkpt lat="28.375389" lon="-16.743175"><ele>24.761</ele><time>2024-07-15T11:15:23.751209940Z</time></trkpt><trkpt lat="28.375431" lon="-16.743145"><ele>22.778</ele><time>2024-07-15T11:15:43.751212174Z</time></trkpt><trkpt lat="28.375514" lon="-16.743113"><ele>19.167</ele><time>2024-07-15T11:16:03.751214489Z</time></trkpt><trkpt lat="28.375675" lon="-16.743062"><ele>10.681</ele><time>2024-07-15T11:16:23.751216723Z</time></trkpt><trkpt lat="28.375711" lon="-16.743008"><ele>9.219</ele><time>2024-07-15T11:16:43.751219087Z</time></trkpt><trkpt lat="28.375703" lon="-16.742949"><ele>10.308</ele><time>2024-07-15T11:17:03.751221381Z</time></trkpt><trkpt lat="28.375684" lon="-16.742907"><ele>11.744</ele><time>2024-07-15T11:17:23.751223616Z</time></trkpt><trkpt lat="28.375699" lon="-16.742846"><ele>11.740</ele><time>2024-07-15T11:17:43.751225850Z</time></trkpt><trkpt lat="28.375717" lon="-16.742802"><ele>11.540</ele><time>2024-07-15T11:18:03.751228044Z</time></trkpt><trkpt lat="28.375685" lon="-16.742758"><ele>13.278</ele><time>2024-07-15T11:18:23.751230268Z</time></trkpt><trkpt lat="28.375659" lon="-16.742700"><ele>14.610</ele><time>2024-07-15T11:18:43.751232522Z</time></trkpt><trkpt lat="28.375665" lon="-16.742634"><ele>14.941</ele><time>2024-07-15T11:19:03.751234766Z</time></trkpt><trkpt lat="28.375680" lon="-16.742588"><ele>14.852</ele><time>2024-07-15T11:19:23.751237071Z</time></trkpt><trkpt lat="28.375679" lon="-16.742509"><ele>15.529</ele><time>2024-07-15T11:19:43.751239315Z</time></trkpt><trkpt lat="28.375760" lon="-16.742428"><ele>14.413</ele><time>2024-07-15T11:20:03.751241599Z</time></trkpt><trkpt lat="28.375858" lon="-16.742383"><ele>13.943</ele><time>2024-07-15T11:20:23.751243803Z</time></trkpt><trkpt lat="28.375953" lon="-16.742443"><ele>13.107</ele><time>2024-07-15T11:20:43.751246028Z</time></trkpt><trkpt lat="28.376051" lon="-16.742562"><ele>10.808</ele><time>2024-07-15T11:21:03.751248192Z</time></trkpt><trkpt lat="28.376105" lon="-16.742753"><ele>6.659</ele><time>2024-07-15T11:21:23.751250416Z</time></trkpt><trkpt lat="28.376141" lon="-16.742834"><ele>5.025</ele><time>2024-07-15T11:21:43.751252630Z</time></trkpt><trkpt lat="28.376209" lon="-16.742849"><ele>5.585</ele><time>2024-07-15T11:22:03.751255585Z</time></trkpt><trkpt lat="28.376301" lon="-16.742833"><ele>7.083</ele><time>2024-07-15T11:22:23.751259152Z</time></trkpt><trkpt lat="28.376401" lon="-16.742765"><ele>9.765</ele><time>2024-07-15T11:22:43.751262779Z</time></trkpt><trkpt lat="28.376449" lon="-16.742699"><ele>12.456</ele><time>2024-07-15T11:23:03.751266576Z</time></trkpt><trkpt lat="28.376448" lon="-16.742558"><ele>16.737</ele><time>2024-07-15T11:23:23.751270243Z</time></trkpt><trkpt lat="28.376242" lon="-16.741677"><ele>26.934</ele><time>2024-07-15T11:23:43.751273870Z</time></trkpt><trkpt lat="28.376107" lon="-16.741039"><ele>35.357</ele><time>2024-07-15T11:24:03.751277777Z</time></trkpt><trkpt lat="28.375950" lon="-16.740890"><ele>37.200</ele><time>2024-07-15T11:24:23.751281824Z</time></trkpt><trkpt lat="28.375930" lon="-16.740811"><ele>38.320</ele><time>2024-07-15T11:24:43.751284269Z</time></trkpt><trkpt lat="28.375965" lon="-16.740732"><ele>38.908</ele><time>2024-07-15T11:25:03.751287094Z</time></trkpt><trkpt lat="28.376137" lon="-16.740337"><ele>40.363</ele><time>2024-07-15T11:25:23.751289308Z</time></trkpt><trkpt lat="28.376158" lon="-16.740240"><ele>40.659</ele><time>2024-07-15T11:25:43.751306410Z</time></trkpt><trkpt lat="28.376169" lon="-16.740082"><ele>41.359</ele><time>2024-07-15T11:26:03.751309105Z</time></trkpt><trkpt lat="28.376206" lon="-16.739988"><ele>41.527</ele><time>2024-07-15T11:26:23.751311500Z</time></trkpt><trkpt lat="28.376283" lon="-16.739919"><ele>41.269</ele><time>2024-07-15T11:26:43.751313754Z</time></trkpt><trkpt lat="28.376362" lon="-16.739923"><ele>40.680</ele><time>2024-07-15T11:27:03.751315948Z</time></trkpt><trkpt lat="28.376471" lon="-16.739939"><ele>39.841</ele><time>2024-07-15T11:27:23.751318242Z</time></trkpt><trkpt lat="28.376543" lon="-16.739924"><ele>39.328</ele><time>2024-07-15T11:27:43.751320487Z</time></trkpt><trkpt lat="28.376735" lon="-16.739715"><ele>38.477</ele><time>2024-07-15T11:28:03.751322781Z</time></trkpt><trkpt lat="28.376851" lon="-16.739424"><ele>37.761</ele><time>2024-07-15T11:28:23.751325065Z</time></trkpt><trkpt lat="28.376902" lon="-16.738937"><ele>33.527</ele><time>2024-07-15T11:28:43.751327269Z</time></trkpt><trkpt lat="28.376878" lon="-16.738872"><ele>33.308</ele><time>2024-07-15T11:29:03.751329463Z</time></trkpt><trkpt lat="28.376715" lon="-16.738725"><ele>35.265</ele><time>2024-07-15T11:29:23.751331638Z</time></trkpt><trkpt lat="28.376569" lon="-16.738583"><ele>35.791</ele><time>2024-07-15T11:29:43.751333852Z</time></trkpt><trkpt lat="28.376441" lon="-16.738348"><ele>34.481</ele><time>2024-07-15T11:30:03.751336026Z</time></trkpt><trkpt lat="28.376433" lon="-16.738248"><ele>34.079</ele><time>2024-07-15T11:30:23.751338260Z</time></trkpt><trkpt lat="28.376567" lon="-16.738078"><ele>31.541</ele><time>2024-07-15T11:30:43.751340484Z</time></trkpt><trkpt lat="28.376590" lon="-16.737943"><ele>30.712</ele><time>2024-07-15T11:31:03.751342748Z</time></trkpt><trkpt lat="28.376636" lon="-16.737620"><ele>29.993</ele><time>2024-07-15T11:31:23.751345033Z</time></trkpt><trkpt lat="28.376716" lon="-16.737280"><ele>30.160</ele><time>2024-07-15T11:31:43.751347327Z</time></trkpt><trkpt lat="28.376824" lon="-16.736812"><ele>29.543</ele><time>2024-07-15T11:32:03.751349741Z</time></trkpt><trkpt lat="28.376891" lon="-16.736771"><ele>28.664</ele><time>2024-07-15T11:32:23.751352066Z</time></trkpt><trkpt lat="28.377689" lon="-16.736890"><ele>22.910</ele><time>2024-07-15T11:32:43.751354380Z</time></trkpt><trkpt lat="28.377729" lon="-16.736844"><ele>22.908</ele><time>2024-07-15T11:33:03.751356614Z</time></trkpt><trkpt lat="28.377753" lon="-16.736740"><ele>23.552</ele><time>2024-07-15T11:33:23.751358838Z</time></trkpt><trkpt lat="28.377787" lon="-16.736685"><ele>23.768</ele><time>2024-07-15T11:33:43.751361073Z</time></trkpt><trkpt lat="28.378048" lon="-16.736731"><ele>21.088</ele><time>2024-07-15T11:34:03.751363287Z</time></trkpt><trkpt lat="28.378397" lon="-16.736791"><ele>18.976</ele><time>2024-07-15T11:34:23.751365571Z</time></trkpt><trkpt lat="28.378766" lon="-16.736860"><ele>18.988</ele><time>2024-07-15T11:34:43.751367745Z</time></trkpt><trkpt lat="28.378828" lon="-16.736847"><ele>18.939</ele><time>2024-07-15T11:35:03.751369939Z</time></trkpt><trkpt lat="28.378870" lon="-16.736798"><ele>18.920</ele><time>2024-07-15T11:35:23.751372153Z</time></trkpt><trkpt lat="28.379047" lon="-16.735464"><ele>17.847</ele><time>2024-07-15T11:35:43.751374337Z</time></trkpt><trkpt lat="28.379081" lon="-16.735439"><ele>17.664</ele><time>2024-07-15T11:36:03.751376612Z</time></trkpt><trkpt lat="28.379605" lon="-16.735396"><ele>12.806</ele><time>2024-07-15T11:36:23.751378876Z</time></trkpt><trkpt lat="28.380167" lon="-16.735117"><ele>8.516</ele><time>2024-07-15T11:36:43.751381160Z</time></trkpt><trkpt lat="28.381787" lon="-16.733541"><ele>9.508</ele><time>2024-07-15T11:37:03.751388093Z</time></trkpt><trkpt lat="28.381796" lon="-16.733180"><ele>9.394</ele><time>2024-07-15T11:37:23.751390367Z</time></trkpt><trkpt lat="28.381562" lon="-16.732602"><ele>6.390</ele><time>2024-07-15T11:37:43.751392571Z</time></trkpt><trkpt lat="28.381465" lon="-16.732439"><ele>6.230</ele><time>2024-07-15T11:38:03.751394846Z</time></trkpt><trkpt lat="28.381375" lon="-16.732338"><ele>4.698</ele><time>2024-07-15T11:38:23.751397Z</time></trkpt><trkpt lat="28.381103" lon="-16.732099"><ele>0.010</ele><time>2024-07-15T11:38:43.751399574Z</time></trkpt><trkpt lat="28.381010" lon="-16.732041"><ele>0.071</ele><time>2024-07-15T11:39:03.751401799Z</time></trkpt><trkpt lat="28.380924" lon="-16.732021"><ele>0.052</ele><time>2024-07-15T11:39:23.751403983Z</time></trkpt><trkpt lat="28.380815" lon="-16.732031"><ele>0.079</ele><time>2024-07-15T11:39:43.751406137Z</time></trkpt><trkpt lat="28.380167" lon="-16.732379"><ele>8.133</ele><time>2024-07-15T11:40:03.751408451Z</time></trkpt><trkpt lat="28.379672" lon="-16.732345"><ele>13.323</ele><time>2024-07-15T11:40:23.751410675Z</time></trkpt><trkpt lat="28.379654" lon="-16.732326"><ele>13.015</ele><time>2024-07-15T11:40:43.751412909Z</time></trkpt><trkpt lat="28.379644" lon="-16.732312"><ele>12.808</ele><time>2024-07-15T11:41:03.751415174Z</time></trkpt><trkpt lat="28.379627" lon="-16.732302"><ele>12.731</ele><time>2024-07-15T11:41:23.751417408Z</time></trkpt><trkpt lat="28.379609" lon="-16.732306"><ele>12.847</ele><time>2024-07-15T11:41:43.751419612Z</time></trkpt><trkpt lat="28.379587" lon="-16.732306"><ele>12.997</ele><time>2024-07-15T11:42:03.751421816Z</time></trkpt><trkpt lat="28.379570" lon="-16.732303"><ele>12.975</ele><time>2024-07-15T11:42:23.751424Z</time></trkpt><trkpt lat="28.379548" lon="-16.732306"><ele>13.067</ele><time>2024-07-15T11:42:43.751426164Z</time></trkpt><trkpt lat="28.379532" lon="-16.732333"><ele>13.568</ele><time>2024-07-15T11:43:03.751428368Z</time></trkpt><trkpt lat="28.379514" lon="-16.732353"><ele>13.849</ele><time>2024-07-15T11:43:23.751430713Z</time></trkpt><trkpt lat="28.379482" lon="-16.732354"><ele>13.996</ele><time>2024-07-15T11:43:43.751432917Z</time></trkpt><trkpt lat="28.379445" lon="-16.732342"><ele>13.821</ele><time>2024-07-15T11:44:03.751435241Z</time></trkpt><trkpt lat="28.379420" lon="-16.732330"><ele>13.741</ele><time>2024-07-15T11:44:23.751437505Z</time></trkpt><trkpt lat="28.379390" lon="-16.732321"><ele>13.705</ele><time>2024-07-15T11:44:43.751439730Z</time></trkpt><trkpt lat="28.379358" lon="-16.732306"><ele>13.708</ele><time>2024-07-15T11:45:03.751441924Z</time></trkpt><trkpt lat="28.379332" lon="-16.732290"><ele>13.630</ele><time>2024-07-15T11:45:23.751446071Z</time></trkpt><trkpt lat="28.379322" lon="-16.732267"><ele>13.476</ele><time>2024-07-15T11:45:43.751448366Z</time></trkpt><trkpt lat="28.379282" lon="-16.732271"><ele>13.746</ele><time>2024-07-15T11:46:03.751450600Z</time></trkpt><trkpt lat="28.379249" lon="-16.732249"><ele>13.724</ele><time>2024-07-15T11:46:23.751452844Z</time></trkpt><trkpt lat="28.379219" lon="-16.732225"><ele>13.776</ele><time>2024-07-15T11:46:43.751455088Z</time></trkpt><trkpt lat="28.379175" lon="-16.732196"><ele>13.477</ele><time>2024-07-15T11:47:03.751457272Z</time></trkpt><trkpt lat="28.379141" lon="-16.732186"><ele>13.428</ele><time>2024-07-15T11:47:23.751459486Z</time></trkpt><trkpt lat="28.379096" lon="-16.732183"><ele>13.655</ele><time>2024-07-15T11:47:43.751461681Z</time></trkpt><trkpt lat="28.379078" lon="-16.732185"><ele>13.763</ele><time>2024-07-15T11:48:03.751464035Z</time></trkpt><trkpt lat="28.379061" lon="-16.732173"><ele>13.644</ele><time>2024-07-15T11:48:23.751466309Z</time></trkpt><trkpt lat="28.379035" lon="-16.732172"><ele>13.718</ele><time>2024-07-15T11:48:43.751468513Z</time></trkpt><trkpt lat="28.379012" lon="-16.732182"><ele>14.008</ele><time>2024-07-15T11:49:03.751470697Z</time></trkpt><trkpt lat="28.379003" lon="-16.732199"><ele>14.344</ele><time>2024-07-15T11:49:23.751472892Z</time></trkpt><trkpt lat="28.379005" lon="-16.732223"><ele>14.750</ele><time>2024-07-15T11:49:43.751475206Z</time></trkpt><trkpt lat="28.379013" lon="-16.732247"><ele>14.820</ele><time>2024-07-15T11:50:03.751477530Z</time></trkpt><trkpt lat="28.379003" lon="-16.732267"><ele>15.088</ele><time>2024-07-15T11:50:23.751480265Z</time></trkpt><trkpt lat="28.378980" lon="-16.732287"><ele>15.250</ele><time>2024-07-15T11:50:43.751482469Z</time></trkpt><trkpt lat="28.378948" lon="-16.732295"><ele>15.431</ele><time>2024-07-15T11:51:03.751490334Z</time></trkpt><trkpt lat="28.378918" lon="-16.732305"><ele>15.642</ele><time>2024-07-15T11:51:23.751492648Z</time></trkpt><trkpt lat="28.378886" lon="-16.732317"><ele>15.839</ele><time>2024-07-15T11:51:43.751494893Z</time></trkpt><trkpt lat="28.378849" lon="-16.732329"><ele>16.079</ele><time>2024-07-15T11:52:03.751497167Z</time></trkpt><trkpt lat="28.378823" lon="-16.732330"><ele>16.105</ele><time>2024-07-15T11:52:23.751499421Z</time></trkpt><trkpt lat="28.378795" lon="-16.732336"><ele>16.225</ele><time>2024-07-15T11:52:43.751501655Z</time></trkpt><trkpt lat="28.378756" lon="-16.732313"><ele>16.208</ele><time>2024-07-15T11:53:03.751503849Z</time></trkpt><trkpt lat="28.378738" lon="-16.732304"><ele>16.215</ele><time>2024-07-15T11:53:23.751506043Z</time></trkpt><trkpt lat="28.378705" lon="-16.732278"><ele>16.221</ele><time>2024-07-15T11:53:43.751508248Z</time></trkpt><trkpt lat="28.378674" lon="-16.732280"><ele>16.381</ele><time>2024-07-15T11:54:03.751510432Z</time></trkpt><trkpt lat="28.378630" lon="-16.732227"><ele>16.279</ele><time>2024-07-15T11:54:23.751512606Z</time></trkpt><trkpt lat="28.378594" lon="-16.732180"><ele>16.051</ele><time>2024-07-15T11:54:43.751514820Z</time></trkpt><trkpt lat="28.378563" lon="-16.732114"><ele>15.672</ele><time>2024-07-15T11:55:03.751517024Z</time></trkpt><trkpt lat="28.378542" lon="-16.732079"><ele>15.483</ele><time>2024-07-15T11:55:23.751519338Z</time></trkpt><trkpt lat="28.378523" lon="-16.732035"><ele>15.270</ele><time>2024-07-15T11:55:43.751521562Z</time></trkpt><trkpt lat="28.378477" lon="-16.732001"><ele>15.153</ele><time>2024-07-15T11:56:03.751523907Z</time></trkpt><trkpt lat="28.378427" lon="-16.731968"><ele>15.004</ele><time>2024-07-15T11:56:23.751526171Z</time></trkpt><trkpt lat="28.378388" lon="-16.731926"><ele>14.714</ele><time>2024-07-15T11:56:43.751528405Z</time></trkpt><trkpt lat="28.378373" lon="-16.731888"><ele>14.208</ele><time>2024-07-15T11:57:03.751530659Z</time></trkpt><trkpt lat="28.378368" lon="-16.731835"><ele>13.413</ele><time>2024-07-15T11:57:23.751532994Z</time></trkpt><trkpt lat="28.378374" lon="-16.731796"><ele>12.879</ele><time>2024-07-15T11:57:43.751535308Z</time></trkpt><trkpt lat="28.378351" lon="-16.731776"><ele>12.659</ele><time>2024-07-15T11:58:03.751537542Z</time></trkpt><trkpt lat="28.378319" lon="-16.731746"><ele>12.327</ele><time>2024-07-15T11:58:23.751539746Z</time></trkpt><trkpt lat="28.378297" lon="-16.731718"><ele>12.099</ele><time>2024-07-15T11:58:43.751543794Z</time></trkpt><trkpt lat="28.378300" lon="-16.731689"><ele>11.690</ele><time>2024-07-15T11:59:03.751547421Z</time></trkpt><trkpt lat="28.378308" lon="-16.731665"><ele>11.281</ele><time>2024-07-15T11:59:23.751551068Z</time></trkpt><trkpt lat="28.378304" lon="-16.731653"><ele>11.068</ele><time>2024-07-15T11:59:43.751554334Z</time></trkpt><trkpt lat="28.378291" lon="-16.731647"><ele>10.983</ele><time>2024-07-15T12:00:03.751558141Z</time></trkpt><trkpt lat="28.378262" lon="-16.731629"><ele>10.725</ele><time>2024-07-15T12:00:23.751561778Z</time></trkpt><trkpt lat="28.378217" lon="-16.731621"><ele>10.817</ele><time>2024-07-15T12:00:43.751565565Z</time></trkpt><trkpt lat="28.378178" lon="-16.731622"><ele>11.008</ele><time>2024-07-15T12:01:03.751569141Z</time></trkpt><trkpt lat="28.378124" lon="-16.731615"><ele>11.136</ele><time>2024-07-15T12:01:23.751572658Z</time></trkpt><trkpt lat="28.377890" lon="-16.731384"><ele>8.692</ele><time>2024-07-15T12:01:43.751576205Z</time></trkpt><trkpt lat="28.377885" lon="-16.731328"><ele>7.682</ele><time>2024-07-15T12:02:03.751579821Z</time></trkpt><trkpt lat="28.377910" lon="-16.731287"><ele>6.860</ele><time>2024-07-15T12:02:23.751583929Z</time></trkpt><trkpt lat="28.377994" lon="-16.731212"><ele>5.552</ele><time>2024-07-15T12:02:43.751587906Z</time></trkpt><trkpt lat="28.378071" lon="-16.731156"><ele>4.733</ele><time>2024-07-15T12:03:03.751591533Z</time></trkpt><trkpt lat="28.378121" lon="-16.731133"><ele>4.274</ele><time>2024-07-15T12:03:23.751595010Z</time></trkpt><trkpt lat="28.378196" lon="-16.731085"><ele>3.441</ele><time>2024-07-15T12:03:43.751598456Z</time></trkpt><trkpt lat="28.378257" lon="-16.731042"><ele>2.836</ele><time>2024-07-15T12:04:03.751602053Z</time></trkpt><trkpt lat="28.378295" lon="-16.731010"><ele>2.517</ele><time>2024-07-15T12:04:23.751605630Z</time></trkpt><trkpt lat="28.378331" lon="-16.730958"><ele>2.018</ele><time>2024-07-15T12:04:43.751609367Z</time></trkpt><trkpt lat="28.378354" lon="-16.730888"><ele>1.408</ele><time>2024-07-15T12:05:03.751612983Z</time></trkpt><trkpt lat="28.378383" lon="-16.730787"><ele>0.821</ele><time>2024-07-15T12:05:23.751616650Z</time></trkpt><trkpt lat="28.378371" lon="-16.730787"><ele>0.827</ele><time>2024-07-15T12:05:43.751620157Z</time></trkpt><trkpt lat="28.378329" lon="-16.730916"><ele>1.797</ele><time>2024-07-15T12:06:03.751623703Z</time></trkpt><trkpt lat="28.378291" lon="-16.730989"><ele>2.355</ele><time>2024-07-15T12:06:23.751627510Z</time></trkpt><trkpt lat="28.378241" lon="-16.731032"><ele>2.857</ele><time>2024-07-15T12:06:43.751631227Z</time></trkpt><trkpt lat="28.378188" lon="-16.731082"><ele>3.498</ele><time>2024-07-15T12:07:03.751634914Z</time></trkpt><trkpt lat="28.378123" lon="-16.731116"><ele>4.049</ele><time>2024-07-15T12:07:23.751638802Z</time></trkpt><trkpt lat="28.378025" lon="-16.731170"><ele>5.036</ele><time>2024-07-15T12:07:43.751642438Z</time></trkpt><trkpt lat="28.377980" lon="-16.731214"><ele>5.636</ele><time>2024-07-15T12:08:03.751646326Z</time></trkpt><trkpt lat="28.377918" lon="-16.731254"><ele>6.317</ele><time>2024-07-15T12:08:23.751649872Z</time></trkpt><trkpt lat="28.377856" lon="-16.731304"><ele>7.318</ele><time>2024-07-15T12:08:43.751653529Z</time></trkpt><trkpt lat="28.377801" lon="-16.731340"><ele>8.108</ele><time>2024-07-15T12:09:03.751657216Z</time></trkpt><trkpt lat="28.377729" lon="-16.731360"><ele>8.881</ele><time>2024-07-15T12:09:23.751660833Z</time></trkpt><trkpt lat="28.377673" lon="-16.731357"><ele>9.017</ele><time>2024-07-15T12:09:43.751664399Z</time></trkpt><trkpt lat="28.377624" lon="-16.731317"><ele>8.437</ele><time>2024-07-15T12:10:03.751666594Z</time></trkpt><trkpt lat="28.377574" lon="-16.731257"><ele>7.575</ele><time>2024-07-15T12:10:23.751668858Z</time></trkpt><trkpt lat="28.377553" lon="-16.731204"><ele>6.627</ele><time>2024-07-15T12:10:43.751671082Z</time></trkpt><trkpt lat="28.377564" lon="-16.731141"><ele>5.328</ele><time>2024-07-15T12:11:03.751673236Z</time></trkpt><trkpt lat="28.377561" lon="-16.731121"><ele>4.969</ele><time>2024-07-15T12:11:23.751675781Z</time></trkpt><trkpt lat="28.377590" lon="-16.731098"><ele>4.476</ele><time>2024-07-15T12:11:43.751679037Z</time></trkpt><trkpt lat="28.377593" lon="-16.731058"><ele>3.912</ele><time>2024-07-15T12:12:03.751681421Z</time></trkpt><trkpt lat="28.377583" lon="-16.731029"><ele>3.732</ele><time>2024-07-15T12:12:23.751683595Z</time></trkpt><trkpt lat="28.377570" lon="-16.731039"><ele>3.905</ele><time>2024-07-15T12:12:43.751685819Z</time></trkpt><trkpt lat="28.377570" lon="-16.731068"><ele>4.208</ele><time>2024-07-15T12:13:03.751688044Z</time></trkpt><trkpt lat="28.377562" lon="-16.731098"><ele>4.659</ele><time>2024-07-15T12:13:23.751690268Z</time></trkpt><trkpt lat="28.377541" lon="-16.731111"><ele>4.985</ele><time>2024-07-15T12:13:43.751692452Z</time></trkpt><trkpt lat="28.377499" lon="-16.731121"><ele>5.495</ele><time>2024-07-15T12:14:03.751694606Z</time></trkpt><trkpt lat="28.377482" lon="-16.731145"><ele>6.053</ele><time>2024-07-15T12:14:23.751696770Z</time></trkpt><trkpt lat="28.377479" lon="-16.731166"><ele>6.435</ele><time>2024-07-15T12:14:43.751698964Z</time></trkpt><trkpt lat="28.377655" lon="-16.731358"><ele>9.146</ele><time>2024-07-15T12:15:03.751701178Z</time></trkpt><trkpt lat="28.377724" lon="-16.731370"><ele>9.147</ele><time>2024-07-15T12:15:23.751703352Z</time></trkpt><trkpt lat="28.377795" lon="-16.731364"><ele>8.724</ele><time>2024-07-15T12:15:43.751706147Z</time></trkpt><trkpt lat="28.377843" lon="-16.731363"><ele>8.534</ele><time>2024-07-15T12:16:03.751708422Z</time></trkpt><trkpt lat="28.378112" lon="-16.731637"><ele>11.655</ele><time>2024-07-15T12:16:23.751710706Z</time></trkpt><trkpt lat="28.378127" lon="-16.731695"><ele>12.310</ele><time>2024-07-15T12:16:43.751724662Z</time></trkpt><trkpt lat="28.378121" lon="-16.731758"><ele>13.108</ele><time>2024-07-15T12:17:03.751726936Z</time></trkpt><trkpt lat="28.376414" lon="-16.733420"><ele>19.221</ele><time>2024-07-15T12:17:23.751729201Z</time></trkpt><trkpt lat="28.375936" lon="-16.733728"><ele>19.127</ele><time>2024-07-15T12:17:43.751731405Z</time></trkpt><trkpt lat="28.375658" lon="-16.734117"><ele>20.167</ele><time>2024-07-15T12:18:03.751733649Z</time></trkpt><trkpt lat="28.375196" lon="-16.734599"><ele>22.095</ele><time>2024-07-15T12:18:23.751735883Z</time></trkpt><trkpt lat="28.375119" lon="-16.734654"><ele>22.587</ele><time>2024-07-15T12:18:43.751738087Z</time></trkpt><trkpt lat="28.375047" lon="-16.734616"><ele>22.498</ele><time>2024-07-15T12:19:03.751740301Z</time></trkpt><trkpt lat="28.374913" lon="-16.734575"><ele>22.229</ele><time>2024-07-15T12:19:23.751742485Z</time></trkpt><trkpt lat="28.374489" lon="-16.735547"><ele>27.326</ele><time>2024-07-15T12:19:43.751744700Z</time></trkpt><trkpt lat="28.374432" lon="-16.735617"><ele>28.084</ele><time>2024-07-15T12:20:03.751747024Z</time></trkpt><trkpt lat="28.374308" lon="-16.735890"><ele>31.307</ele><time>2024-07-15T12:20:23.751749278Z</time></trkpt><trkpt lat="28.374222" lon="-16.735997"><ele>33.217</ele><time>2024-07-15T12:20:43.751751602Z</time></trkpt><trkpt lat="28.374095" lon="-16.736103"><ele>35.108</ele><time>2024-07-15T12:21:03.751753857Z</time></trkpt><trkpt lat="28.373949" lon="-16.736211"><ele>37.386</ele><time>2024-07-15T12:21:23.751756091Z</time></trkpt><trkpt lat="28.373888" lon="-16.736262"><ele>38.572</ele><time>2024-07-15T12:21:43.751758265Z</time></trkpt><trkpt lat="28.373775" lon="-16.736285"><ele>40.122</ele><time>2024-07-15T12:22:03.751760469Z</time></trkpt><trkpt lat="28.373647" lon="-16.736303"><ele>41.890</ele><time>2024-07-15T12:22:23.751762683Z</time></trkpt><trkpt lat="28.373532" lon="-16.736303"><ele>43.442</ele><time>2024-07-15T12:22:43.751764937Z</time></trkpt><trkpt lat="28.373465" lon="-16.736283"><ele>44.073</ele><time>2024-07-15T12:23:03.751767202Z</time></trkpt><trkpt lat="28.373384" lon="-16.736246"><ele>44.514</ele><time>2024-07-15T12:23:23.751769526Z</time></trkpt><trkpt lat="28.373256" lon="-16.736162"><ele>47.041</ele><time>2024-07-15T12:23:43.751771770Z</time></trkpt><trkpt lat="28.373181" lon="-16.736091"><ele>49.492</ele><time>2024-07-15T12:24:03.751774054Z</time></trkpt><trkpt lat="28.373121" lon="-16.736094"><ele>52.273</ele><time>2024-07-15T12:24:23.751776299Z</time></trkpt><trkpt lat="28.373109" lon="-16.736133"><ele>53.220</ele><time>2024-07-15T12:24:43.751778513Z</time></trkpt><trkpt lat="28.373309" lon="-16.736551"><ele>54.408</ele><time>2024-07-15T12:25:03.751780687Z</time></trkpt><trkpt lat="28.373482" lon="-16.736650"><ele>53.727</ele><time>2024-07-15T12:25:23.751782911Z</time></trkpt><trkpt lat="28.373674" lon="-16.736823"><ele>55.863</ele><time>2024-07-15T12:25:43.751785115Z</time></trkpt><trkpt lat="28.374096" lon="-16.737300"><ele>52.313</ele><time>2024-07-15T12:26:03.751787349Z</time></trkpt><trkpt lat="28.374146" lon="-16.737422"><ele>51.481</ele><time>2024-07-15T12:26:23.751789563Z</time></trkpt><trkpt lat="28.374156" lon="-16.737537"><ele>51.573</ele><time>2024-07-15T12:26:43.751791757Z</time></trkpt><trkpt lat="28.374116" lon="-16.737650"><ele>52.244</ele><time>2024-07-15T12:27:03.751793982Z</time></trkpt><trkpt lat="28.374054" lon="-16.737735"><ele>53.465</ele><time>2024-07-15T12:27:23.751796186Z</time></trkpt><trkpt lat="28.373967" lon="-16.737782"><ele>55.372</ele><time>2024-07-15T12:27:43.751798420Z</time></trkpt><trkpt lat="28.373909" lon="-16.737801"><ele>56.474</ele><time>2024-07-15T12:28:03.751800674Z</time></trkpt><trkpt lat="28.373851" lon="-16.737929"><ele>56.056</ele><time>2024-07-15T12:28:23.751802928Z</time></trkpt><trkpt lat="28.373820" lon="-16.738072"><ele>55.321</ele><time>2024-07-15T12:28:43.751805163Z</time></trkpt><trkpt lat="28.373829" lon="-16.738218"><ele>54.808</ele><time>2024-07-15T12:29:03.751807377Z</time></trkpt><trkpt lat="28.373863" lon="-16.738348"><ele>53.675</ele><time>2024-07-15T12:29:23.751809601Z</time></trkpt><trkpt lat="28.373907" lon="-16.738485"><ele>54.261</ele><time>2024-07-15T12:29:43.751811805Z</time></trkpt><trkpt lat="28.373920" lon="-16.738657"><ele>56.631</ele><time>2024-07-15T12:30:03.751813989Z</time></trkpt><trkpt lat="28.373965" lon="-16.738770"><ele>57.919</ele><time>2024-07-15T12:30:23.751816203Z</time></trkpt><trkpt lat="28.374056" lon="-16.738884"><ele>58.051</ele><time>2024-07-15T12:30:43.751818397Z</time></trkpt><trkpt lat="28.374147" lon="-16.738970"><ele>57.692</ele><time>2024-07-15T12:31:03.751820651Z</time></trkpt><trkpt lat="28.374230" lon="-16.739056"><ele>57.963</ele><time>2024-07-15T12:31:23.751822926Z</time></trkpt><trkpt lat="28.374354" lon="-16.739112"><ele>56.990</ele><time>2024-07-15T12:31:43.751825120Z</time></trkpt><trkpt lat="28.374465" lon="-16.739221"><ele>56.746</ele><time>2024-07-15T12:32:03.751827444Z</time></trkpt><trkpt lat="28.374539" lon="-16.739365"><ele>57.788</ele><time>2024-07-15T12:32:23.751829738Z</time></trkpt><trkpt lat="28.374573" lon="-16.739519"><ele>59.016</ele><time>2024-07-15T12:32:43.751831983Z</time></trkpt><trkpt lat="28.374568" lon="-16.739875"><ele>61.108</ele><time>2024-07-15T12:33:03.751834247Z</time></trkpt><trkpt lat="28.374545" lon="-16.740014"><ele>61.842</ele><time>2024-07-15T12:33:23.751836511Z</time></trkpt><trkpt lat="28.374467" lon="-16.740190"><ele>62.398</ele><time>2024-07-15T12:33:43.751838715Z</time></trkpt><trkpt lat="28.374307" lon="-16.740419"><ele>63.688</ele><time>2024-07-15T12:34:03.751840919Z</time></trkpt><trkpt lat="28.374159" lon="-16.740568"><ele>63.326</ele><time>2024-07-15T12:34:23.751843083Z</time></trkpt><trkpt lat="28.374036" lon="-16.740643"><ele>63.698</ele><time>2024-07-15T12:34:43.751845308Z</time></trkpt><trkpt lat="28.373836" lon="-16.740650"><ele>66.469</ele><time>2024-07-15T12:35:03.751847512Z</time></trkpt><trkpt lat="28.373659" lon="-16.740634"><ele>70.110</ele><time>2024-07-15T12:35:23.751849746Z</time></trkpt><trkpt lat="28.373441" lon="-16.740714"><ele>72.167</ele><time>2024-07-15T12:35:43.751852010Z</time></trkpt><trkpt lat="28.373283" lon="-16.740818"><ele>73.784</ele><time>2024-07-15T12:36:03.751856098Z</time></trkpt><trkpt lat="28.373110" lon="-16.741052"><ele>78.707</ele><time>2024-07-15T12:36:23.751858422Z</time></trkpt><trkpt lat="28.373062" lon="-16.741142"><ele>81.217</ele><time>2024-07-15T12:36:43.751860616Z</time></trkpt><trkpt lat="28.373093" lon="-16.741231"><ele>82.908</ele><time>2024-07-15T12:37:03.751862830Z</time></trkpt><trkpt lat="28.373230" lon="-16.741381"><ele>82.726</ele><time>2024-07-15T12:37:23.751865075Z</time></trkpt><trkpt lat="28.373317" lon="-16.741449"><ele>81.842</ele><time>2024-07-15T12:37:43.751867319Z</time></trkpt><trkpt lat="28.373420" lon="-16.741539"><ele>81.472</ele><time>2024-07-15T12:38:03.751869493Z</time></trkpt><trkpt lat="28.373542" lon="-16.741620"><ele>80.240</ele><time>2024-07-15T12:38:23.751871757Z</time></trkpt><trkpt lat="28.373631" lon="-16.741729"><ele>78.982</ele><time>2024-07-15T12:38:43.751873961Z</time></trkpt><trkpt lat="28.373683" lon="-16.741837"><ele>77.073</ele><time>2024-07-15T12:39:03.751876185Z</time></trkpt><trkpt lat="28.373701" lon="-16.741972"><ele>76.584</ele><time>2024-07-15T12:39:23.751878439Z</time></trkpt></trkseg></trk></gpx>